sensor_id;sensor_type;location;lat;lon;timestamp;temperature;humidity
22986;DHT22;11659;51.092;7.080;2022-10-16T00:00:19;14.00;99.90
22986;DHT22;11659;51.092;7.080;2022-10-16T00:02:45;14.00;99.90
22986;DHT22;11659;51.092;7.080;2022-10-16T00:05:11;14.10;99.90
22986;DHT22;11659;51.092;7.080;2022-10-16T00:07:38;14.00;99.90
22986;DHT22;11659;51.092;7.080;2022-10-16T00:10:05;14.00;99.90
22986;DHT22;11659;51.092;7.080;2022-10-16T00:12:31;14.00;99.90
22986;DHT22;11659;51.092;7.080;2022-10-16T00:14:57;14.00;99.90
22986;DHT22;11659;51.092;7.080;2022-10-16T00:17:23;14.00;99.90
22986;DHT22;11659;51.092;7.080;2022-10-16T00:19:49;14.00;99.90
22986;DHT22;11659;51.092;7.080;2022-10-16T00:22:33;13.90;99.90
22986;DHT22;11659;51.092;7.080;2022-10-16T00:25:00;13.90;99.90
22986;DHT22;11659;51.092;7.080;2022-10-16T00:27:27;13.90;99.90
22986;DHT22;11659;51.092;7.080;2022-10-16T00:29:53;13.90;99.90
22986;DHT22;11659;51.092;7.080;2022-10-16T00:32:19;13.90;99.90
22986;DHT22;11659;51.092;7.080;2022-10-16T00:34:46;13.80;99.90
22986;DHT22;11659;51.092;7.080;2022-10-16T00:37:12;13.90;99.90
22986;DHT22;11659;51.092;7.080;2022-10-16T00:39:38;13.90;99.90
22986;DHT22;11659;51.092;7.080;2022-10-16T00:42:05;13.80;99.90
22986;DHT22;11659;51.092;7.080;2022-10-16T00:44:50;13.80;99.90
22986;DHT22;11659;51.092;7.080;2022-10-16T00:47:21;13.80;99.90
22986;DHT22;11659;51.092;7.080;2022-10-16T00:49:50;14.00;99.90
22986;DHT22;11659;51.092;7.080;2022-10-16T00:52:17;13.80;99.90
22986;DHT22;11659;51.092;7.080;2022-10-16T00:54:43;13.70;99.90
22986;DHT22;11659;51.092;7.080;2022-10-16T00:57:13;13.70;99.90
22986;DHT22;11659;51.092;7.080;2022-10-16T00:59:41;13.70;99.90
22986;DHT22;11659;51.092;7.080;2022-10-16T01:02:09;13.60;99.90
22986;DHT22;11659;51.092;7.080;2022-10-16T01:04:38;13.60;99.90
22986;DHT22;11659;51.092;7.080;2022-10-16T01:07:10;13.60;99.90
22986;DHT22;11659;51.092;7.080;2022-10-16T01:09:47;13.60;99.90
22986;DHT22;11659;51.092;7.080;2022-10-16T01:12:20;13.60;99.90
22986;DHT22;11659;51.092;7.080;2022-10-16T01:14:50;13.60;99.90
22986;DHT22;11659;51.092;7.080;2022-10-16T01:17:21;13.60;99.90
22986;DHT22;11659;51.092;7.080;2022-10-16T01:20:02;13.40;99.90
22986;DHT22;11659;51.092;7.080;2022-10-16T01:22:37;13.50;99.90
22986;DHT22;11659;51.092;7.080;2022-10-16T01:25:11;13.50;99.90
22986;DHT22;11659;51.092;7.080;2022-10-16T01:27:40;13.40;99.90
22986;DHT22;11659;51.092;7.080;2022-10-16T01:30:10;13.50;99.90
22986;DHT22;11659;51.092;7.080;2022-10-16T01:32:40;13.50;99.90
22986;DHT22;11659;51.092;7.080;2022-10-16T01:35:11;13.50;99.90
22986;DHT22;11659;51.092;7.080;2022-10-16T01:37:43;13.50;99.90
22986;DHT22;11659;51.092;7.080;2022-10-16T01:40:12;13.40;99.90
22986;DHT22;11659;51.092;7.080;2022-10-16T01:42:44;13.50;99.90
22986;DHT22;11659;51.092;7.080;2022-10-16T01:45:14;13.50;99.90
22986;DHT22;11659;51.092;7.080;2022-10-16T01:47:44;13.50;99.90
22986;DHT22;11659;51.092;7.080;2022-10-16T01:50:12;13.50;99.90
22986;DHT22;11659;51.092;7.080;2022-10-16T01:52:43;13.50;99.90
22986;DHT22;11659;51.092;7.080;2022-10-16T01:55:13;13.50;99.90
22986;DHT22;11659;51.092;7.080;2022-10-16T01:57:45;13.50;99.90
22986;DHT22;11659;51.092;7.080;2022-10-16T02:00:14;13.50;99.90
22986;DHT22;11659;51.092;7.080;2022-10-16T02:02:45;13.50;99.90
22986;DHT22;11659;51.092;7.080;2022-10-16T02:05:16;13.60;99.90
22986;DHT22;11659;51.092;7.080;2022-10-16T02:07:44;13.60;99.90
22986;DHT22;11659;51.092;7.080;2022-10-16T02:10:11;13.60;99.90
22986;DHT22;11659;51.092;7.080;2022-10-16T02:12:39;13.60;99.90
22986;DHT22;11659;51.092;7.080;2022-10-16T02:15:08;13.60;99.90
22986;DHT22;11659;51.092;7.080;2022-10-16T02:17:34;13.70;99.90
22986;DHT22;11659;51.092;7.080;2022-10-16T02:20:00;13.70;99.90
22986;DHT22;11659;51.092;7.080;2022-10-16T02:22:28;13.70;99.90
22986;DHT22;11659;51.092;7.080;2022-10-16T02:24:59;13.70;99.90
22986;DHT22;11659;51.092;7.080;2022-10-16T02:27:32;13.70;99.90
22986;DHT22;11659;51.092;7.080;2022-10-16T02:30:03;13.70;99.90
22986;DHT22;11659;51.092;7.080;2022-10-16T02:32:37;13.70;99.90
22986;DHT22;11659;51.092;7.080;2022-10-16T02:35:04;13.70;99.90
22986;DHT22;11659;51.092;7.080;2022-10-16T02:37:32;13.70;99.90
22986;DHT22;11659;51.092;7.080;2022-10-16T02:39:58;13.70;99.90
22986;DHT22;11659;51.092;7.080;2022-10-16T02:42:28;13.70;99.90
22986;DHT22;11659;51.092;7.080;2022-10-16T02:44:54;13.70;99.90
22986;DHT22;11659;51.092;7.080;2022-10-16T02:47:20;13.70;99.90
22986;DHT22;11659;51.092;7.080;2022-10-16T02:49:47;13.80;99.90
22986;DHT22;11659;51.092;7.080;2022-10-16T02:52:13;13.80;99.90
22986;DHT22;11659;51.092;7.080;2022-10-16T02:54:39;13.80;99.90
22986;DHT22;11659;51.092;7.080;2022-10-16T02:57:05;13.80;99.90
22986;DHT22;11659;51.092;7.080;2022-10-16T02:59:31;13.80;99.90
22986;DHT22;11659;51.092;7.080;2022-10-16T03:01:57;13.80;99.90
22986;DHT22;11659;51.092;7.080;2022-10-16T03:04:23;13.80;99.90
22986;DHT22;11659;51.092;7.080;2022-10-16T03:06:50;13.80;99.90
22986;DHT22;11659;51.092;7.080;2022-10-16T03:09:16;13.90;99.90
22986;DHT22;11659;51.092;7.080;2022-10-16T03:11:42;13.80;99.90
22986;DHT22;11659;51.092;7.080;2022-10-16T03:14:08;13.80;99.90
22986;DHT22;11659;51.092;7.080;2022-10-16T03:16:34;13.80;99.90
22986;DHT22;11659;51.092;7.080;2022-10-16T03:19:00;13.90;99.90
22986;DHT22;11659;51.092;7.080;2022-10-16T03:21:26;13.80;99.90
22986;DHT22;11659;51.092;7.080;2022-10-16T03:23:54;13.90;99.90
22986;DHT22;11659;51.092;7.080;2022-10-16T03:26:19;13.80;99.90
22986;DHT22;11659;51.092;7.080;2022-10-16T03:28:45;13.80;99.90
22986;DHT22;11659;51.092;7.080;2022-10-16T03:31:12;13.80;99.90
22986;DHT22;11659;51.092;7.080;2022-10-16T03:33:38;13.80;99.90
22986;DHT22;11659;51.092;7.080;2022-10-16T03:36:04;13.70;99.90
22986;DHT22;11659;51.092;7.080;2022-10-16T03:38:30;13.70;99.90
22986;DHT22;11659;51.092;7.080;2022-10-16T03:40:58;13.70;99.90
22986;DHT22;11659;51.092;7.080;2022-10-16T03:43:23;13.60;99.90
22986;DHT22;11659;51.092;7.080;2022-10-16T03:45:50;13.70;99.90
22986;DHT22;11659;51.092;7.080;2022-10-16T03:48:17;13.60;99.90
22986;DHT22;11659;51.092;7.080;2022-10-16T03:50:43;13.70;99.90
22986;DHT22;11659;51.092;7.080;2022-10-16T03:53:09;13.60;99.90
22986;DHT22;11659;51.092;7.080;2022-10-16T03:55:35;13.60;99.90
22986;DHT22;11659;51.092;7.080;2022-10-16T03:58:02;13.60;99.90
22986;DHT22;11659;51.092;7.080;2022-10-16T04:00:28;13.70;99.90
22986;DHT22;11659;51.092;7.080;2022-10-16T04:02:54;13.60;99.90
22986;DHT22;11659;51.092;7.080;2022-10-16T04:05:20;13.60;99.90
22986;DHT22;11659;51.092;7.080;2022-10-16T04:07:46;13.60;99.90
22986;DHT22;11659;51.092;7.080;2022-10-16T04:10:12;13.60;99.90
22986;DHT22;11659;51.092;7.080;2022-10-16T04:12:38;13.60;99.90
22986;DHT22;11659;51.092;7.080;2022-10-16T04:15:06;13.60;99.90
22986;DHT22;11659;51.092;7.080;2022-10-16T04:17:32;13.60;99.90
22986;DHT22;11659;51.092;7.080;2022-10-16T04:19:58;13.60;99.90
22986;DHT22;11659;51.092;7.080;2022-10-16T04:22:24;13.60;99.90
22986;DHT22;11659;51.092;7.080;2022-10-16T04:24:50;13.60;99.90
22986;DHT22;11659;51.092;7.080;2022-10-16T04:27:16;13.60;99.90
22986;DHT22;11659;51.092;7.080;2022-10-16T04:29:42;13.60;99.90
22986;DHT22;11659;51.092;7.080;2022-10-16T04:32:09;13.50;99.90
22986;DHT22;11659;51.092;7.080;2022-10-16T04:34:35;13.60;99.90
22986;DHT22;11659;51.092;7.080;2022-10-16T04:37:02;13.60;99.90
22986;DHT22;11659;51.092;7.080;2022-10-16T04:39:27;13.60;99.90
22986;DHT22;11659;51.092;7.080;2022-10-16T04:41:53;13.60;99.90
22986;DHT22;11659;51.092;7.080;2022-10-16T04:44:19;13.60;99.90
22986;DHT22;11659;51.092;7.080;2022-10-16T04:46:45;13.60;99.90
22986;DHT22;11659;51.092;7.080;2022-10-16T04:49:12;13.50;99.90
22986;DHT22;11659;51.092;7.080;2022-10-16T04:51:38;13.50;99.90
22986;DHT22;11659;51.092;7.080;2022-10-16T04:54:04;13.50;99.90
22986;DHT22;11659;51.092;7.080;2022-10-16T04:56:30;13.50;99.90
22986;DHT22;11659;51.092;7.080;2022-10-16T04:58:56;13.50;99.90
22986;DHT22;11659;51.092;7.080;2022-10-16T05:01:22;13.40;99.90
22986;DHT22;11659;51.092;7.080;2022-10-16T05:03:48;13.40;99.90
22986;DHT22;11659;51.092;7.080;2022-10-16T05:06:15;13.50;99.90
22986;DHT22;11659;51.092;7.080;2022-10-16T05:08:41;13.40;99.90
22986;DHT22;11659;51.092;7.080;2022-10-16T05:11:07;13.70;99.90
22986;DHT22;11659;51.092;7.080;2022-10-16T05:13:33;13.40;99.90
22986;DHT22;11659;51.092;7.080;2022-10-16T05:15:59;13.40;99.90
22986;DHT22;11659;51.092;7.080;2022-10-16T05:18:25;13.30;99.90
22986;DHT22;11659;51.092;7.080;2022-10-16T05:20:51;13.30;99.90
22986;DHT22;11659;51.092;7.080;2022-10-16T05:23:18;13.30;99.90
22986;DHT22;11659;51.092;7.080;2022-10-16T05:25:52;13.30;99.90
22986;DHT22;11659;51.092;7.080;2022-10-16T05:28:18;13.20;99.90
22986;DHT22;11659;51.092;7.080;2022-10-16T05:30:44;13.20;99.90
22986;DHT22;11659;51.092;7.080;2022-10-16T05:33:09;13.20;99.90
22986;DHT22;11659;51.092;7.080;2022-10-16T05:35:35;13.20;99.90
22986;DHT22;11659;51.092;7.080;2022-10-16T05:38:01;13.20;99.90
22986;DHT22;11659;51.092;7.080;2022-10-16T05:40:29;13.20;99.90
22986;DHT22;11659;51.092;7.080;2022-10-16T05:42:55;13.20;99.90
22986;DHT22;11659;51.092;7.080;2022-10-16T05:45:21;13.20;99.90
22986;DHT22;11659;51.092;7.080;2022-10-16T05:47:47;13.20;99.90
22986;DHT22;11659;51.092;7.080;2022-10-16T05:50:14;13.20;99.90
22986;DHT22;11659;51.092;7.080;2022-10-16T05:52:40;13.20;99.90
22986;DHT22;11659;51.092;7.080;2022-10-16T05:55:06;13.20;99.90
22986;DHT22;11659;51.092;7.080;2022-10-16T05:57:34;13.20;99.90
22986;DHT22;11659;51.092;7.080;2022-10-16T06:00:00;13.20;99.90
22986;DHT22;11659;51.092;7.080;2022-10-16T06:02:25;13.20;99.90
22986;DHT22;11659;51.092;7.080;2022-10-16T06:04:52;13.20;99.90
22986;DHT22;11659;51.092;7.080;2022-10-16T06:07:19;13.20;99.90
22986;DHT22;11659;51.092;7.080;2022-10-16T06:09:48;13.20;99.90
22986;DHT22;11659;51.092;7.080;2022-10-16T06:12:14;13.20;99.90
22986;DHT22;11659;51.092;7.080;2022-10-16T06:14:41;13.20;99.90
22986;DHT22;11659;51.092;7.080;2022-10-16T06:17:07;13.30;99.90
22986;DHT22;11659;51.092;7.080;2022-10-16T06:19:33;13.30;99.90
22986;DHT22;11659;51.092;7.080;2022-10-16T06:21:59;13.30;99.90
22986;DHT22;11659;51.092;7.080;2022-10-16T06:24:25;13.30;99.90
22986;DHT22;11659;51.092;7.080;2022-10-16T06:26:51;13.30;99.90
22986;DHT22;11659;51.092;7.080;2022-10-16T06:29:17;13.40;99.90
22986;DHT22;11659;51.092;7.080;2022-10-16T06:31:45;13.40;99.90
22986;DHT22;11659;51.092;7.080;2022-10-16T06:34:11;13.40;99.90
22986;DHT22;11659;51.092;7.080;2022-10-16T06:36:37;13.40;99.90
22986;DHT22;11659;51.092;7.080;2022-10-16T06:39:04;13.40;99.90
22986;DHT22;11659;51.092;7.080;2022-10-16T06:41:31;13.50;99.90
22986;DHT22;11659;51.092;7.080;2022-10-16T06:44:05;13.50;99.90
22986;DHT22;11659;51.092;7.080;2022-10-16T06:46:31;13.60;99.90
22986;DHT22;11659;51.092;7.080;2022-10-16T06:48:58;13.60;99.90
22986;DHT22;11659;51.092;7.080;2022-10-16T06:51:24;13.70;99.90
22986;DHT22;11659;51.092;7.080;2022-10-16T06:53:52;13.70;99.90
22986;DHT22;11659;51.092;7.080;2022-10-16T06:56:20;13.80;99.90
22986;DHT22;11659;51.092;7.080;2022-10-16T06:58:47;13.80;99.90
22986;DHT22;11659;51.092;7.080;2022-10-16T07:01:15;13.90;99.90
22986;DHT22;11659;51.092;7.080;2022-10-16T07:03:43;13.90;99.90
22986;DHT22;11659;51.092;7.080;2022-10-16T07:06:12;14.00;99.90
22986;DHT22;11659;51.092;7.080;2022-10-16T07:08:39;14.10;99.90
22986;DHT22;11659;51.092;7.080;2022-10-16T07:11:09;14.10;99.90
22986;DHT22;11659;51.092;7.080;2022-10-16T07:13:36;14.20;99.90
22986;DHT22;11659;51.092;7.080;2022-10-16T07:16:04;14.20;99.90
22986;DHT22;11659;51.092;7.080;2022-10-16T07:18:30;14.30;99.90
22986;DHT22;11659;51.092;7.080;2022-10-16T07:21:03;14.30;99.90
22986;DHT22;11659;51.092;7.080;2022-10-16T07:23:30;14.40;99.90
22986;DHT22;11659;51.092;7.080;2022-10-16T07:25:57;14.40;99.90
22986;DHT22;11659;51.092;7.080;2022-10-16T07:28:22;14.50;99.90
22986;DHT22;11659;51.092;7.080;2022-10-16T07:30:48;14.50;99.90
22986;DHT22;11659;51.092;7.080;2022-10-16T07:33:14;14.60;99.90
22986;DHT22;11659;51.092;7.080;2022-10-16T07:35:47;14.60;99.90
22986;DHT22;11659;51.092;7.080;2022-10-16T07:38:13;14.60;99.90
22986;DHT22;11659;51.092;7.080;2022-10-16T07:40:40;14.70;99.90
22986;DHT22;11659;51.092;7.080;2022-10-16T07:43:06;14.70;99.90
22986;DHT22;11659;51.092;7.080;2022-10-16T07:45:32;14.70;99.90
22986;DHT22;11659;51.092;7.080;2022-10-16T07:47:58;14.70;99.90
22986;DHT22;11659;51.092;7.080;2022-10-16T07:50:24;14.70;99.90
22986;DHT22;11659;51.092;7.080;2022-10-16T07:52:50;14.70;99.90
22986;DHT22;11659;51.092;7.080;2022-10-16T07:55:17;14.70;99.90
22986;DHT22;11659;51.092;7.080;2022-10-16T07:57:44;14.70;99.90
22986;DHT22;11659;51.092;7.080;2022-10-16T08:00:11;14.60;99.90
22986;DHT22;11659;51.092;7.080;2022-10-16T08:02:40;14.60;99.90
22986;DHT22;11659;51.092;7.080;2022-10-16T08:05:07;14.60;99.90
22986;DHT22;11659;51.092;7.080;2022-10-16T08:07:33;14.60;99.90
22986;DHT22;11659;51.092;7.080;2022-10-16T08:09:59;14.60;99.90
22986;DHT22;11659;51.092;7.080;2022-10-16T08:12:25;14.70;99.90
22986;DHT22;11659;51.092;7.080;2022-10-16T08:14:52;14.70;99.90
22986;DHT22;11659;51.092;7.080;2022-10-16T08:17:18;14.70;99.90
22986;DHT22;11659;51.092;7.080;2022-10-16T08:19:45;14.80;99.90
22986;DHT22;11659;51.092;7.080;2022-10-16T08:22:11;14.80;99.90
22986;DHT22;11659;51.092;7.080;2022-10-16T08:24:37;14.90;99.90
22986;DHT22;11659;51.092;7.080;2022-10-16T08:27:03;15.00;99.90
22986;DHT22;11659;51.092;7.080;2022-10-16T08:29:29;15.00;99.90
22986;DHT22;11659;51.092;7.080;2022-10-16T08:31:57;15.10;99.90
22986;DHT22;11659;51.092;7.080;2022-10-16T08:34:23;15.20;99.90
22986;DHT22;11659;51.092;7.080;2022-10-16T08:36:49;15.30;99.90
22986;DHT22;11659;51.092;7.080;2022-10-16T08:39:15;15.40;99.90
22986;DHT22;11659;51.092;7.080;2022-10-16T08:42:12;15.40;99.90
22986;DHT22;11659;51.092;7.080;2022-10-16T08:44:59;15.50;99.90
22986;DHT22;11659;51.092;7.080;2022-10-16T08:47:39;15.60;99.90
22986;DHT22;11659;51.092;7.080;2022-10-16T08:50:10;15.70;99.90
22986;DHT22;11659;51.092;7.080;2022-10-16T08:52:40;15.70;99.90
22986;DHT22;11659;51.092;7.080;2022-10-16T08:55:19;15.80;99.90
22986;DHT22;11659;51.092;7.080;2022-10-16T08:57:49;15.80;99.90
22986;DHT22;11659;51.092;7.080;2022-10-16T09:00:16;15.90;99.90
22986;DHT22;11659;51.092;7.080;2022-10-16T09:02:50;16.00;99.90
22986;DHT22;11659;51.092;7.080;2022-10-16T09:05:38;16.10;99.90
22986;DHT22;11659;51.092;7.080;2022-10-16T09:08:11;15.70;99.90
22986;DHT22;11659;51.092;7.080;2022-10-16T09:10:48;16.20;99.90
22986;DHT22;11659;51.092;7.080;2022-10-16T09:13:21;16.30;99.90
22986;DHT22;11659;51.092;7.080;2022-10-16T09:15:53;16.40;99.90
22986;DHT22;11659;51.092;7.080;2022-10-16T09:18:26;16.50;99.90
22986;DHT22;11659;51.092;7.080;2022-10-16T09:21:01;16.60;99.90
22986;DHT22;11659;51.092;7.080;2022-10-16T09:23:30;16.60;99.90
22986;DHT22;11659;51.092;7.080;2022-10-16T09:25:59;16.70;99.90
22986;DHT22;11659;51.092;7.080;2022-10-16T09:28:25;16.80;99.90
22986;DHT22;11659;51.092;7.080;2022-10-16T09:30:51;16.80;99.90
22986;DHT22;11659;51.092;7.080;2022-10-16T09:33:20;16.90;99.90
22986;DHT22;11659;51.092;7.080;2022-10-16T09:35:50;16.90;99.90
22986;DHT22;11659;51.092;7.080;2022-10-16T09:38:25;17.00;99.90
22986;DHT22;11659;51.092;7.080;2022-10-16T09:40:52;17.00;99.90
22986;DHT22;11659;51.092;7.080;2022-10-16T09:43:24;17.10;99.90
22986;DHT22;11659;51.092;7.080;2022-10-16T09:45:54;17.20;99.90
22986;DHT22;11659;51.092;7.080;2022-10-16T09:48:21;17.30;99.90
22986;DHT22;11659;51.092;7.080;2022-10-16T09:50:57;17.40;99.90
22986;DHT22;11659;51.092;7.080;2022-10-16T09:53:23;17.50;99.90
22986;DHT22;11659;51.092;7.080;2022-10-16T09:55:50;17.60;99.90
22986;DHT22;11659;51.092;7.080;2022-10-16T09:58:16;17.70;99.90
22986;DHT22;11659;51.092;7.080;2022-10-16T10:00:49;17.70;99.90
22986;DHT22;11659;51.092;7.080;2022-10-16T10:03:30;17.70;99.90
22986;DHT22;11659;51.092;7.080;2022-10-16T10:06:06;17.80;99.90
22986;DHT22;11659;51.092;7.080;2022-10-16T10:08:32;17.90;99.90
22986;DHT22;11659;51.092;7.080;2022-10-16T10:10:58;18.00;99.90
22986;DHT22;11659;51.092;7.080;2022-10-16T10:13:25;18.10;99.90
22986;DHT22;11659;51.092;7.080;2022-10-16T10:15:53;18.10;99.90
22986;DHT22;11659;51.092;7.080;2022-10-16T10:18:21;18.10;99.90
22986;DHT22;11659;51.092;7.080;2022-10-16T10:20:57;18.30;99.90
22986;DHT22;11659;51.092;7.080;2022-10-16T10:23:26;18.30;99.90
22986;DHT22;11659;51.092;7.080;2022-10-16T10:25:54;18.40;99.90
22986;DHT22;11659;51.092;7.080;2022-10-16T10:28:38;18.40;99.90
22986;DHT22;11659;51.092;7.080;2022-10-16T10:31:14;18.50;99.90
22986;DHT22;11659;51.092;7.080;2022-10-16T10:33:47;18.60;99.90
22986;DHT22;11659;51.092;7.080;2022-10-16T10:36:25;18.60;99.90
22986;DHT22;11659;51.092;7.080;2022-10-16T10:38:58;18.70;99.90
22986;DHT22;11659;51.092;7.080;2022-10-16T10:41:44;18.80;99.90
22986;DHT22;11659;51.092;7.080;2022-10-16T10:44:20;18.70;99.90
22986;DHT22;11659;51.092;7.080;2022-10-16T10:46:51;18.70;99.90
22986;DHT22;11659;51.092;7.080;2022-10-16T10:49:37;18.70;99.90
22986;DHT22;11659;51.092;7.080;2022-10-16T10:52:20;18.60;99.90
22986;DHT22;11659;51.092;7.080;2022-10-16T10:55:02;18.90;99.90
22986;DHT22;11659;51.092;7.080;2022-10-16T10:57:29;19.00;99.90
22986;DHT22;11659;51.092;7.080;2022-10-16T11:00:07;19.20;99.90
22986;DHT22;11659;51.092;7.080;2022-10-16T11:02:40;19.10;99.90
22986;DHT22;11659;51.092;7.080;2022-10-16T11:05:27;19.20;99.90
22986;DHT22;11659;51.092;7.080;2022-10-16T11:07:57;19.30;99.90
22986;DHT22;11659;51.092;7.080;2022-10-16T11:10:28;19.50;99.90
22986;DHT22;11659;51.092;7.080;2022-10-16T11:12:58;19.60;99.90
22986;DHT22;11659;51.092;7.080;2022-10-16T11:15:28;19.70;99.90
22986;DHT22;11659;51.092;7.080;2022-10-16T11:18:00;19.80;99.90
22986;DHT22;11659;51.092;7.080;2022-10-16T11:20:32;19.80;99.90
22986;DHT22;11659;51.092;7.080;2022-10-16T11:23:05;20.00;99.90
22986;DHT22;11659;51.092;7.080;2022-10-16T11:25:34;20.20;99.90
22986;DHT22;11659;51.092;7.080;2022-10-16T11:28:05;20.30;99.90
22986;DHT22;11659;51.092;7.080;2022-10-16T11:30:40;20.40;99.90
22986;DHT22;11659;51.092;7.080;2022-10-16T11:33:23;20.70;99.90
22986;DHT22;11659;51.092;7.080;2022-10-16T11:35:53;20.70;99.90
22986;DHT22;11659;51.092;7.080;2022-10-16T11:38:27;20.80;99.90
22986;DHT22;11659;51.092;7.080;2022-10-16T11:41:00;20.80;99.90
22986;DHT22;11659;51.092;7.080;2022-10-16T11:43:31;21.00;99.90
22986;DHT22;11659;51.092;7.080;2022-10-16T11:46:03;21.20;99.90
22986;DHT22;11659;51.092;7.080;2022-10-16T11:48:32;21.20;99.90
22986;DHT22;11659;51.092;7.080;2022-10-16T11:51:08;21.40;99.90
22986;DHT22;11659;51.092;7.080;2022-10-16T11:53:45;21.60;99.90
22986;DHT22;11659;51.092;7.080;2022-10-16T11:56:13;21.70;99.50
22986;DHT22;11659;51.092;7.080;2022-10-16T11:58:47;21.60;99.30
22986;DHT22;11659;51.092;7.080;2022-10-16T12:01:20;21.40;99.60
22986;DHT22;11659;51.092;7.080;2022-10-16T12:03:58;21.20;99.90
22986;DHT22;11659;51.092;7.080;2022-10-16T12:06:32;21.30;99.90
22986;DHT22;11659;51.092;7.080;2022-10-16T12:09:00;21.30;99.90
22986;DHT22;11659;51.092;7.080;2022-10-16T12:11:36;21.30;99.90
22986;DHT22;11659;51.092;7.080;2022-10-16T12:14:07;21.30;99.70
22986;DHT22;11659;51.092;7.080;2022-10-16T12:16:52;21.30;99.90
22986;DHT22;11659;51.092;7.080;2022-10-16T12:19:19;21.20;99.90
22986;DHT22;11659;51.092;7.080;2022-10-16T12:21:46;21.10;99.90
22986;DHT22;11659;51.092;7.080;2022-10-16T12:24:21;21.00;99.90
22986;DHT22;11659;51.092;7.080;2022-10-16T12:26:52;20.70;99.90
22986;DHT22;11659;51.092;7.080;2022-10-16T12:29:32;20.50;99.90
22986;DHT22;11659;51.092;7.080;2022-10-16T12:31:59;20.30;99.90
22986;DHT22;11659;51.092;7.080;2022-10-16T12:34:28;20.10;99.90
22986;DHT22;11659;51.092;7.080;2022-10-16T12:36:56;20.00;99.90
22986;DHT22;11659;51.092;7.080;2022-10-16T12:39:23;19.90;99.90
22986;DHT22;11659;51.092;7.080;2022-10-16T12:42:02;19.80;99.90
22986;DHT22;11659;51.092;7.080;2022-10-16T12:44:34;19.70;99.90
22986;DHT22;11659;51.092;7.080;2022-10-16T12:47:01;19.70;99.90
22986;DHT22;11659;51.092;7.080;2022-10-16T12:49:34;19.70;99.90
22986;DHT22;11659;51.092;7.080;2022-10-16T12:52:01;19.80;99.90
22986;DHT22;11659;51.092;7.080;2022-10-16T12:54:30;19.90;99.90
22986;DHT22;11659;51.092;7.080;2022-10-16T12:57:27;20.10;99.90
22986;DHT22;11659;51.092;7.080;2022-10-16T13:00:03;20.40;99.90
22986;DHT22;11659;51.092;7.080;2022-10-16T13:03:04;20.50;99.90
22986;DHT22;11659;51.092;7.080;2022-10-16T13:05:46;20.70;99.90
22986;DHT22;11659;51.092;7.080;2022-10-16T13:08:34;21.00;99.90
22986;DHT22;11659;51.092;7.080;2022-10-16T13:11:11;21.20;99.90
22986;DHT22;11659;51.092;7.080;2022-10-16T13:14:11;21.40;99.90
22986;DHT22;11659;51.092;7.080;2022-10-16T13:16:50;21.60;99.90
22986;DHT22;11659;51.092;7.080;2022-10-16T13:19:26;21.60;99.90
22986;DHT22;11659;51.092;7.080;2022-10-16T13:22:00;21.60;99.90
22986;DHT22;11659;51.092;7.080;2022-10-16T13:24:41;21.50;99.90
22986;DHT22;11659;51.092;7.080;2022-10-16T13:27:13;21.40;99.90
22986;DHT22;11659;51.092;7.080;2022-10-16T13:29:44;21.40;99.90
22986;DHT22;11659;51.092;7.080;2022-10-16T13:32:11;21.40;99.80
22986;DHT22;11659;51.092;7.080;2022-10-16T13:34:45;21.30;99.90
22986;DHT22;11659;51.092;7.080;2022-10-16T13:37:18;21.20;99.90
22986;DHT22;11659;51.092;7.080;2022-10-16T13:39:44;21.20;99.90
22986;DHT22;11659;51.092;7.080;2022-10-16T13:42:18;21.20;99.90
22986;DHT22;11659;51.092;7.080;2022-10-16T13:44:48;21.20;99.80
22986;DHT22;11659;51.092;7.080;2022-10-16T13:47:16;21.20;99.90
22986;DHT22;11659;51.092;7.080;2022-10-16T13:49:43;21.20;99.80
22986;DHT22;11659;51.092;7.080;2022-10-16T13:52:16;21.20;99.70
22986;DHT22;11659;51.092;7.080;2022-10-16T13:54:42;21.20;99.70
22986;DHT22;11659;51.092;7.080;2022-10-16T13:57:13;21.20;99.90
22986;DHT22;11659;51.092;7.080;2022-10-16T13:59:39;21.20;99.70
22986;DHT22;11659;51.092;7.080;2022-10-16T14:02:16;21.30;99.70
22986;DHT22;11659;51.092;7.080;2022-10-16T14:04:44;21.30;99.60
22986;DHT22;11659;51.092;7.080;2022-10-16T14:07:13;21.20;99.60
22986;DHT22;11659;51.092;7.080;2022-10-16T14:09:40;21.00;99.80
22986;DHT22;11659;51.092;7.080;2022-10-16T14:12:10;20.90;99.90
22986;DHT22;11659;51.092;7.080;2022-10-16T14:14:41;20.70;99.90
22986;DHT22;11659;51.092;7.080;2022-10-16T14:17:14;20.50;99.90
22986;DHT22;11659;51.092;7.080;2022-10-16T14:19:44;20.40;99.90
22986;DHT22;11659;51.092;7.080;2022-10-16T14:22:29;20.40;99.90
22986;DHT22;11659;51.092;7.080;2022-10-16T14:24:56;20.30;99.90
22986;DHT22;11659;51.092;7.080;2022-10-16T14:27:28;20.30;99.90
22986;DHT22;11659;51.092;7.080;2022-10-16T14:30:14;20.30;99.90
22986;DHT22;11659;51.092;7.080;2022-10-16T14:32:53;20.20;99.90
22986;DHT22;11659;51.092;7.080;2022-10-16T14:35:25;20.20;99.90
22986;DHT22;11659;51.092;7.080;2022-10-16T14:37:53;20.10;99.90
22986;DHT22;11659;51.092;7.080;2022-10-16T14:40:19;20.00;99.90
22986;DHT22;11659;51.092;7.080;2022-10-16T14:42:46;19.90;99.90
22986;DHT22;11659;51.092;7.080;2022-10-16T14:45:12;19.80;99.90
22986;DHT22;11659;51.092;7.080;2022-10-16T14:47:49;19.70;99.90
22986;DHT22;11659;51.092;7.080;2022-10-16T14:50:16;19.60;99.90
22986;DHT22;11659;51.092;7.080;2022-10-16T14:52:41;19.50;99.90
22986;DHT22;11659;51.092;7.080;2022-10-16T14:55:09;19.40;99.90
22986;DHT22;11659;51.092;7.080;2022-10-16T14:57:37;19.30;99.90
22986;DHT22;11659;51.092;7.080;2022-10-16T15:00:10;19.30;99.90
22986;DHT22;11659;51.092;7.080;2022-10-16T15:02:39;19.30;99.90
22986;DHT22;11659;51.092;7.080;2022-10-16T15:05:13;19.20;99.90
22986;DHT22;11659;51.092;7.080;2022-10-16T15:07:39;19.20;99.90
22986;DHT22;11659;51.092;7.080;2022-10-16T15:10:05;19.10;99.90
22986;DHT22;11659;51.092;7.080;2022-10-16T15:12:31;19.10;99.90
22986;DHT22;11659;51.092;7.080;2022-10-16T15:14:57;19.10;99.90
22986;DHT22;11659;51.092;7.080;2022-10-16T15:17:23;19.00;99.90
22986;DHT22;11659;51.092;7.080;2022-10-16T15:19:49;19.00;99.90
22986;DHT22;11659;51.092;7.080;2022-10-16T15:22:18;18.90;99.90
22986;DHT22;11659;51.092;7.080;2022-10-16T15:24:44;18.80;99.90
22986;DHT22;11659;51.092;7.080;2022-10-16T15:27:10;18.80;99.90
22986;DHT22;11659;51.092;7.080;2022-10-16T15:29:36;18.70;99.90
22986;DHT22;11659;51.092;7.080;2022-10-16T15:32:02;18.70;99.90
22986;DHT22;11659;51.092;7.080;2022-10-16T15:34:28;18.60;99.90
22986;DHT22;11659;51.092;7.080;2022-10-16T15:36:54;18.60;99.90
22986;DHT22;11659;51.092;7.080;2022-10-16T15:39:22;18.50;99.90
22986;DHT22;11659;51.092;7.080;2022-10-16T15:41:48;18.50;99.90
22986;DHT22;11659;51.092;7.080;2022-10-16T15:44:20;18.40;99.90